sensor_id;sensor_type;location;lat;lon;timestamp;pressure;altitude;pressure_sealevel;temperature;humidity
63901;BME280;50538;53.482;10.294;2022-07-09T00:02:55;102112.78;;;15.56;84.63
63901;BME280;50538;53.482;10.294;2022-07-09T00:12:55;102110.94;;;15.56;84.57
63901;BME280;50538;53.482;10.294;2022-07-09T00:22:55;102103.91;;;15.55;85.81
63901;BME280;50538;53.482;10.294;2022-07-09T00:32:56;102094.19;;;15.46;86.16
63901;BME280;50538;53.482;10.294;2022-07-09T00:42:57;102100.19;;;15.40;86.09
63901;BME280;50538;53.482;10.294;2022-07-09T00:52:57;102092.16;;;15.32;86.50
63901;BME280;50538;53.482;10.294;2022-07-09T01:02:57;102087.25;;;15.19;86.63
63901;BME280;50538;53.482;10.294;2022-07-09T01:12:58;102079.53;;;15.08;88.15
63901;BME280;50538;53.482;10.294;2022-07-09T01:22:59;102085.19;;;14.97;89.86
63901;BME280;50538;53.482;10.294;2022-07-09T01:32:59;102066.09;;;14.92;90.54
63901;BME280;50538;53.482;10.294;2022-07-09T01:43:00;102062.44;;;14.93;91.15
63901;BME280;50538;53.482;10.294;2022-07-09T01:53:00;102056.91;;;14.95;91.93
63901;BME280;50538;53.482;10.294;2022-07-09T02:03:01;102049.72;;;14.95;92.91
63901;BME280;50538;53.482;10.294;2022-07-09T02:13:01;102030.31;;;14.93;93.91
63901;BME280;50538;53.482;10.294;2022-07-09T02:23:01;102032.16;;;14.93;93.95
63901;BME280;50538;53.482;10.294;2022-07-09T02:33:02;102031.31;;;14.92;94.11
63901;BME280;50538;53.482;10.294;2022-07-09T02:43:03;102017.28;;;14.90;94.59
63901;BME280;50538;53.482;10.294;2022-07-09T02:53:03;102020.13;;;14.88;95.23
63901;BME280;50538;53.482;10.294;2022-07-09T03:03:04;102022.63;;;14.90;95.37
63901;BME280;50538;53.482;10.294;2022-07-09T03:13:04;102016.13;;;14.93;95.79
63901;BME280;50538;53.482;10.294;2022-07-09T03:23:05;102003.75;;;14.91;97.04
63901;BME280;50538;53.482;10.294;2022-07-09T03:33:05;101995.72;;;14.91;96.80
63901;BME280;50538;53.482;10.294;2022-07-09T03:43:05;101988.88;;;14.97;96.43
63901;BME280;50538;53.482;10.294;2022-07-09T03:53:06;101978.34;;;14.96;96.57
63901;BME280;50538;53.482;10.294;2022-07-09T04:03:06;101984.88;;;14.93;97.84
63901;BME280;50538;53.482;10.294;2022-07-09T04:13:07;101962.97;;;14.89;98.36
63901;BME280;50538;53.482;10.294;2022-07-09T04:23:08;101962.78;;;14.91;98.28
63901;BME280;50538;53.482;10.294;2022-07-09T04:33:08;101964.31;;;15.02;97.93
63901;BME280;50538;53.482;10.294;2022-07-09T04:43:08;101959.53;;;15.13;97.87
63901;BME280;50538;53.482;10.294;2022-07-09T04:53:09;101951.47;;;15.21;97.79
63901;BME280;50538;53.482;10.294;2022-07-09T05:03:09;101940.94;;;15.28;97.93
63901;BME280;50538;53.482;10.294;2022-07-09T05:13:10;101953.16;;;15.31;98.21
63901;BME280;50538;53.482;10.294;2022-07-09T05:23:10;101948.81;;;15.38;98.95
63901;BME280;50538;53.482;10.294;2022-07-09T05:33:11;101933.75;;;15.53;99.60
63901;BME280;50538;53.482;10.294;2022-07-09T05:43:11;101934.91;;;15.67;99.29
63901;BME280;50538;53.482;10.294;2022-07-09T05:53:12;101922.13;;;15.85;98.57
63901;BME280;50538;53.482;10.294;2022-07-09T06:03:12;101932.66;;;15.95;97.73
63901;BME280;50538;53.482;10.294;2022-07-09T06:13:12;101936.66;;;16.07;97.31
63901;BME280;50538;53.482;10.294;2022-07-09T06:23:13;101921.91;;;16.11;97.67
63901;BME280;50538;53.482;10.294;2022-07-09T06:33:13;101924.38;;;16.20;97.12
63901;BME280;50538;53.482;10.294;2022-07-09T06:43:14;101912.09;;;16.34;97.35
63901;BME280;50538;53.482;10.294;2022-07-09T06:53:14;101918.00;;;16.61;97.04
63901;BME280;50538;53.482;10.294;2022-07-09T07:03:15;101916.88;;;17.01;94.50
63901;BME280;50538;53.482;10.294;2022-07-09T07:13:15;101909.41;;;17.34;92.85
63901;BME280;50538;53.482;10.294;2022-07-09T07:23:15;101895.41;;;17.61;90.52
63901;BME280;50538;53.482;10.294;2022-07-09T07:33:16;101901.03;;;17.51;90.13
63901;BME280;50538;53.482;10.294;2022-07-09T07:43:16;101891.88;;;17.61;90.18
63901;BME280;50538;53.482;10.294;2022-07-09T07:53:16;101896.34;;;17.68;89.25
63901;BME280;50538;53.482;10.294;2022-07-09T08:03:17;101884.06;;;18.25;87.28
63901;BME280;50538;53.482;10.294;2022-07-09T08:13:18;101884.53;;;18.43;86.42
63901;BME280;50538;53.482;10.294;2022-07-09T08:23:18;101862.19;;;19.06;80.78
63901;BME280;50538;53.482;10.294;2022-07-09T08:33:19;101866.88;;;19.26;81.20
63901;BME280;50538;53.482;10.294;2022-07-09T08:43:19;101855.88;;;19.21;80.03
63901;BME280;50538;53.482;10.294;2022-07-09T08:53:19;101854.56;;;18.89;81.57
63901;BME280;50538;53.482;10.294;2022-07-09T09:03:20;101857.19;;;18.82;80.91
63901;BME280;50538;53.482;10.294;2022-07-09T09:13:20;101854.13;;;19.06;81.31
63901;BME280;50538;53.482;10.294;2022-07-09T09:23:21;101845.06;;;19.70;78.18
63901;BME280;50538;53.482;10.294;2022-07-09T09:33:22;101836.47;;;20.55;72.66
63901;BME280;50538;53.482;10.294;2022-07-09T09:43:23;101818.22;;;21.43;66.18
63901;BME280;50538;53.482;10.294;2022-07-09T09:53:24;101802.91;;;21.82;65.38
63901;BME280;50538;53.482;10.294;2022-07-09T10:03:25;101809.09;;;21.31;66.80
63901;BME280;50538;53.482;10.294;2022-07-09T10:13:26;101804.09;;;21.48;63.59
63901;BME280;50538;53.482;10.294;2022-07-09T10:23:26;101797.22;;;21.45;63.83
63901;BME280;50538;53.482;10.294;2022-07-09T10:33:33;101768.97;;;21.99;62.85
63901;BME280;50538;53.482;10.294;2022-07-09T10:43:43;101776.34;;;21.72;60.89
63901;BME280;50538;53.482;10.294;2022-07-09T10:53:47;101764.38;;;22.06;58.13
63901;BME280;50538;53.482;10.294;2022-07-09T11:03:49;101770.59;;;22.38;59.57
63901;BME280;50538;53.482;10.294;2022-07-09T11:13:51;101763.75;;;22.92;55.46
63901;BME280;50538;53.482;10.294;2022-07-09T11:23:52;101766.38;;;22.49;57.10
63901;BME280;50538;53.482;10.294;2022-07-09T11:33:53;101758.66;;;23.02;57.81
63901;BME280;50538;53.482;10.294;2022-07-09T11:44:37;101756.31;;;23.24;53.72
63901;BME280;50538;53.482;10.294;2022-07-09T11:54:37;101757.50;;;23.53;52.69
63901;BME280;50538;53.482;10.294;2022-07-09T12:04:45;101764.34;;;23.73;53.31
63901;BME280;50538;53.482;10.294;2022-07-09T12:14:45;101776.34;;;21.72;66.43
63901;BME280;50538;53.482;10.294;2022-07-09T12:24:48;101769.84;;;21.86;65.78
63901;BME280;50538;53.482;10.294;2022-07-09T12:35:14;101755.34;;;23.00;57.77
63901;BME280;50538;53.482;10.294;2022-07-09T12:45:14;101750.25;;;22.85;54.27
63901;BME280;50538;53.482;10.294;2022-07-09T12:55:15;101755.88;;;23.08;54.00
63901;BME280;50538;53.482;10.294;2022-07-09T13:05:16;101753.41;;;23.43;52.25
63901;BME280;50538;53.482;10.294;2022-07-09T13:15:17;101755.03;;;23.51;50.34
63901;BME280;50538;53.482;10.294;2022-07-09T13:25:21;101774.78;;;23.33;46.97
63901;BME280;50538;53.482;10.294;2022-07-09T13:35:21;101760.16;;;22.98;47.19
63901;BME280;50538;53.482;10.294;2022-07-09T13:45:21;101762.66;;;22.43;46.00
63901;BME280;50538;53.482;10.294;2022-07-09T13:55:22;101762.28;;;22.39;45.98
63901;BME280;50538;53.482;10.294;2022-07-09T14:05:22;101750.81;;;22.94;47.12
63901;BME280;50538;53.482;10.294;2022-07-09T14:15:22;101753.63;;;23.05;45.74
63901;BME280;50538;53.482;10.294;2022-07-09T14:25:23;101766.41;;;22.42;46.44
63901;BME280;50538;53.482;10.294;2022-07-09T14:35:25;101779.38;;;22.02;48.05
63901;BME280;50538;53.482;10.294;2022-07-09T14:45:26;101785.00;;;22.00;44.84
63901;BME280;50538;53.482;10.294;2022-07-09T14:55:27;101760.06;;;22.55;44.19
63901;BME280;50538;53.482;10.294;2022-07-09T15:05:28;101766.38;;;22.49;45.02
63901;BME280;50538;53.482;10.294;2022-07-09T15:15:28;101757.16;;;23.06;45.43
63901;BME280;50538;53.482;10.294;2022-07-09T15:25:29;101766.53;;;21.77;48.53
63901;BME280;50538;53.482;10.294;2022-07-09T15:35:29;101772.78;;;21.78;48.35
63901;BME280;50538;53.482;10.294;2022-07-09T15:45:30;101769.00;;;21.21;49.13
63901;BME280;50538;53.482;10.294;2022-07-09T15:55:30;101757.59;;;20.53;46.85
63901;BME280;50538;53.482;10.294;2022-07-09T16:05:30;101757.78;;;20.38;47.11
63901;BME280;50538;53.482;10.294;2022-07-09T16:15:36;101764.63;;;20.47;47.85
63901;BME280;50538;53.482;10.294;2022-07-09T16:25:36;101771.09;;;19.86;51.61
63901;BME280;50538;53.482;10.294;2022-07-09T16:35:36;101782.44;;;19.68;51.43
63901;BME280;50538;53.482;10.294;2022-07-09T16:45:37;101785.16;;;19.68;51.83
63901;BME280;50538;53.482;10.294;2022-07-09T16:55:39;101787.13;;;19.18;53.96
63901;BME280;50538;53.482;10.294;2022-07-09T17:06:06;101776.03;;;18.78;51.95
63901;BME280;50538;53.482;10.294;2022-07-09T17:16:06;101810.38;;;18.76;53.91
63901;BME280;50538;53.482;10.294;2022-07-09T17:26:08;101795.59;;;18.44;55.00
63901;BME280;50538;53.482;10.294;2022-07-09T17:36:09;101796.34;;;18.38;53.41
63901;BME280;50538;53.482;10.294;2022-07-09T17:46:09;101798.03;;;18.25;54.69
63901;BME280;50538;53.482;10.294;2022-07-09T17:56:10;101784.03;;;17.93;56.19
63901;BME280;50538;53.482;10.294;2022-07-09T18:06:10;101781.72;;;17.90;56.14
63901;BME280;50538;53.482;10.294;2022-07-09T18:16:13;101780.81;;;17.83;57.02
63901;BME280;50538;53.482;10.294;2022-07-09T18:26:15;101780.47;;;17.71;56.41
63901;BME280;50538;53.482;10.294;2022-07-09T18:36:17;101787.78;;;17.77;56.46
63901;BME280;50538;53.482;10.294;2022-07-09T18:46:19;101796.50;;;17.35;55.12
63901;BME280;50538;53.482;10.294;2022-07-09T18:56:19;101785.88;;;17.04;55.78
63901;BME280;50538;53.482;10.294;2022-07-09T19:06:20;101784.16;;;16.74;59.61
63901;BME280;50538;53.482;10.294;2022-07-09T19:16:21;101795.53;;;16.53;60.65
63901;BME280;50538;53.482;10.294;2022-07-09T19:26:21;101788.03;;;16.48;61.16
63901;BME280;50538;53.482;10.294;2022-07-09T19:36:24;101796.31;;;16.39;62.18
63901;BME280;50538;53.482;10.294;2022-07-09T19:46:24;101788.19;;;16.24;65.58
63901;BME280;50538;53.482;10.294;2022-07-09T19:56:25;101803.38;;;16.01;65.84
63901;BME280;50538;53.482;10.294;2022-07-09T20:06:25;101804.59;;;15.90;65.56
63901;BME280;50538;53.482;10.294;2022-07-09T20:16:26;101788.44;;;15.75;65.08
63901;BME280;50538;53.482;10.294;2022-07-09T20:26:26;101794.66;;;15.68;66.18
63901;BME280;50538;53.482;10.294;2022-07-09T20:36:27;101801.22;;;15.65;67.72
63901;BME280;50538;53.482;10.294;2022-07-09T20:46:27;101788.03;;;15.47;69.84
63901;BME280;50538;53.482;10.294;2022-07-09T20:56:28;101788.41;;;15.36;70.35
63901;BME280;50538;53.482;10.294;2022-07-09T21:06:28;101765.84;;;15.31;70.30
63901;BME280;50538;53.482;10.294;2022-07-09T21:16:29;101772.38;;;15.28;69.64
63901;BME280;50538;53.482;10.294;2022-07-09T21:26:48;101765.19;;;15.29;69.63
63901;BME280;50538;53.482;10.294;2022-07-09T21:36:48;101773.88;;;15.22;70.57
63901;BME280;50538;53.482;10.294;2022-07-09T21:46:49;101775.09;;;14.71;78.93
63901;BME280;50538;53.482;10.294;2022-07-09T21:56:49;101777.28;;;14.43;80.38
63901;BME280;50538;53.482;10.294;2022-07-09T22:06:49;101763.38;;;14.32;79.86
63901;BME280;50538;53.482;10.294;2022-07-09T22:16:51;101768.56;;;14.33;77.01
63901;BME280;50538;53.482;10.294;2022-07-09T22:26:51;101772.84;;;14.10;83.93
63901;BME280;50538;53.482;10.294;2022-07-09T22:36:52;101766.81;;;13.91;85.60
63901;BME280;50538;53.482;10.294;2022-07-09T22:46:52;101753.06;;;13.78;84.89
63901;BME280;50538;53.482;10.294;2022-07-09T22:56:52;101740.19;;;13.74;85.16
63901;BME280;50538;53.482;10.294;2022-07-09T23:06:53;101742.88;;;13.74;85.07
63901;BME280;50538;53.482;10.294;2022-07-09T23:16:53;101745.88;;;13.79;83.70
63901;BME280;50538;53.482;10.294;2022-07-09T23:26:53;101743.91;;;13.81;83.97
63901;BME280;50538;53.482;10.294;2022-07-09T23:36:54;101734.88;;;13.82;82.45
63901;BME280;50538;53.482;10.294;2022-07-09T23:46:54;101731.38;;;13.81;81.61
63901;BME280;50538;53.482;10.294;2022-07-09T23:56:55;101722.03;;;13.77;80.67
